sensor_id;sensor_type;location;lat;lon;timestamp;pressure;altitude;pressure_sealevel;temperature;humidity
56414;BME280;42318;48.452;19.526;2023-05-29T00:06:21;98363.94;;;21.29;55.30
56414;BME280;42318;48.452;19.526;2023-05-29T00:13:52;98360.41;;;21.28;55.56
56414;BME280;42318;48.452;19.526;2023-05-29T00:21:23;98344.31;;;21.27;55.22
56414;BME280;42318;48.452;19.526;2023-05-29T00:28:54;98338.06;;;21.26;55.15
56414;BME280;42318;48.452;19.526;2023-05-29T00:36:25;98348.94;;;21.26;55.48
56414;BME280;42318;48.452;19.526;2023-05-29T00:43:56;98340.69;;;21.21;55.51
56414;BME280;42318;48.452;19.526;2023-05-29T00:51:28;98337.72;;;21.23;55.54
56414;BME280;42318;48.452;19.526;2023-05-29T00:59:00;98326.84;;;21.23;55.58
56414;BME280;42318;48.452;19.526;2023-05-29T01:06:32;98335.81;;;21.23;55.33
56414;BME280;42318;48.452;19.526;2023-05-29T01:14:06;98322.44;;;21.22;55.58
56414;BME280;42318;48.452;19.526;2023-05-29T01:29:24;98317.25;;;21.20;55.22
56414;BME280;42318;48.452;19.526;2023-05-29T01:36:56;98316.72;;;21.18;55.22
56414;BME280;42318;48.452;19.526;2023-05-29T01:44:28;98318.88;;;21.16;55.10
56414;BME280;42318;48.452;19.526;2023-05-29T01:51:59;98324.06;;;21.18;55.47
56414;BME280;42318;48.452;19.526;2023-05-29T01:59:30;98311.53;;;21.17;55.47
56414;BME280;42318;48.452;19.526;2023-05-29T02:07:01;98311.53;;;21.17;55.12
56414;BME280;42318;48.452;19.526;2023-05-29T02:14:33;98306.34;;;21.15;55.43
56414;BME280;42318;48.452;19.526;2023-05-29T02:22:04;98295.72;;;21.14;55.08
56414;BME280;42318;48.452;19.526;2023-05-29T02:29:36;98292.16;;;21.13;55.19
56414;BME280;42318;48.452;19.526;2023-05-29T02:37:06;98288.34;;;21.09;55.11
56414;BME280;42318;48.452;19.526;2023-05-29T02:44:37;98282.09;;;21.09;55.15
56414;BME280;42318;48.452;19.526;2023-05-29T02:52:08;98288.34;;;21.09;55.46
56414;BME280;42318;48.452;19.526;2023-05-29T02:59:39;98292.97;;;21.09;55.18
56414;BME280;42318;48.452;19.526;2023-05-29T03:07:10;98281.25;;;21.08;55.16
56414;BME280;42318;48.452;19.526;2023-05-29T03:14:40;98280.44;;;21.08;55.36
56414;BME280;42318;48.452;19.526;2023-05-29T03:22:11;98290.53;;;21.07;55.03
56414;BME280;42318;48.452;19.526;2023-05-29T03:29:42;98285.34;;;21.06;55.45
56414;BME280;42318;48.452;19.526;2023-05-29T03:37:13;98291.06;;;21.04;55.28
56414;BME280;42318;48.452;19.526;2023-05-29T03:44:44;98299.22;;;21.04;55.29
56414;BME280;42318;48.452;19.526;2023-05-29T03:52:15;98297.88;;;21.01;55.13
56414;BME280;42318;48.452;19.526;2023-05-29T03:59:46;98288.88;;;21.01;55.38
56414;BME280;42318;48.452;19.526;2023-05-29T04:07:17;98295.97;;;21.02;55.20
56414;BME280;42318;48.452;19.526;2023-05-29T04:14:48;98297.59;;;21.03;55.35
56414;BME280;42318;48.452;19.526;2023-05-29T04:22:19;98294.31;;;21.01;55.27
56414;BME280;42318;48.452;19.526;2023-05-29T04:29:51;98288.31;;;20.99;55.30
56414;BME280;42318;48.452;19.526;2023-05-29T04:37:21;98292.94;;;20.98;54.98
56414;BME280;42318;48.452;19.526;2023-05-29T04:44:59;98286.41;;;20.99;55.44
56414;BME280;42318;48.452;19.526;2023-05-29T04:52:31;98297.31;;;20.99;55.31
56414;BME280;42318;48.452;19.526;2023-05-29T05:00:03;98304.66;;;20.99;55.27
56414;BME280;42318;48.452;19.526;2023-05-29T05:07:39;98304.66;;;20.99;55.19
56414;BME280;42318;48.452;19.526;2023-05-29T05:15:10;98300.31;;;20.98;55.20
56414;BME280;42318;48.452;19.526;2023-05-29T05:22:41;98303.03;;;20.98;55.24
56414;BME280;42318;48.452;19.526;2023-05-29T05:30:12;98311.19;;;20.98;55.60
56414;BME280;42318;48.452;19.526;2023-05-29T05:37:43;98316.63;;;20.98;55.18
56414;BME280;42318;48.452;19.526;2023-05-29T05:45:14;98318.53;;;20.97;55.31
56414;BME280;42318;48.452;19.526;2023-05-29T05:52:45;98323.19;;;20.97;55.31
56414;BME280;42318;48.452;19.526;2023-05-29T06:00:16;98329.44;;;20.97;55.02
56414;BME280;42318;48.452;19.526;2023-05-29T06:07:47;98332.16;;;20.97;55.26
56414;BME280;42318;48.452;19.526;2023-05-29T06:15:18;98329.97;;;20.94;55.49
56414;BME280;42318;48.452;19.526;2023-05-29T06:22:49;98344.97;;;20.97;55.42
56414;BME280;42318;48.452;19.526;2023-05-29T06:30:21;98349.59;;;20.96;55.36
56414;BME280;42318;48.452;19.526;2023-05-29T06:37:51;98356.69;;;20.97;55.24
56414;BME280;42318;48.452;19.526;2023-05-29T06:45:22;98351.22;;;20.97;55.58
56414;BME280;42318;48.452;19.526;2023-05-29T06:52:53;98360.22;;;20.98;55.30
56414;BME280;42318;48.452;19.526;2023-05-29T07:00:24;98356.69;;;20.97;55.31
56414;BME280;42318;48.452;19.526;2023-05-29T07:07:55;98360.22;;;20.98;55.54
56414;BME280;42318;48.452;19.526;2023-05-29T07:15:26;98361.03;;;20.98;55.55
56414;BME280;42318;48.452;19.526;2023-05-29T07:22:57;98363.75;;;20.98;55.69
56414;BME280;42318;48.452;19.526;2023-05-29T07:30:27;98351.75;;;20.94;55.13
56414;BME280;42318;48.452;19.526;2023-05-29T07:37:59;98360.22;;;20.98;55.56
56414;BME280;42318;48.452;19.526;2023-05-29T07:45:30;98356.69;;;20.97;55.53
56414;BME280;42318;48.452;19.526;2023-05-29T07:53:01;98359.97;;;20.99;55.37
56414;BME280;42318;48.452;19.526;2023-05-29T08:00:32;98358.06;;;21.00;55.22
56414;BME280;42318;48.452;19.526;2023-05-29T08:08:03;98361.59;;;21.00;55.33
56414;BME280;42318;48.452;19.526;2023-05-29T08:15:34;98359.97;;;20.99;55.07
56414;BME280;42318;48.452;19.526;2023-05-29T08:23:05;98359.69;;;21.01;55.01
56414;BME280;42318;48.452;19.526;2023-05-29T08:30:36;98363.22;;;21.01;55.23
56414;BME280;42318;48.452;19.526;2023-05-29T08:38:10;98363.22;;;21.01;55.15
56414;BME280;42318;48.452;19.526;2023-05-29T08:45:45;98356.69;;;21.02;55.42
56414;BME280;42318;48.452;19.526;2023-05-29T08:53:16;98354.53;;;21.05;55.27
56414;BME280;42318;48.452;19.526;2023-05-29T09:00:48;98346.88;;;21.01;55.23
56414;BME280;42318;48.452;19.526;2023-05-29T09:08:19;98346.88;;;21.01;55.24
56414;BME280;42318;48.452;19.526;2023-05-29T09:15:49;98343.38;;;21.06;55.32
56414;BME280;42318;48.452;19.526;2023-05-29T09:23:20;98351.53;;;21.06;55.13
56414;BME280;42318;48.452;19.526;2023-05-29T09:30:51;98345.81;;;21.08;55.15
56414;BME280;42318;48.452;19.526;2023-05-29T09:38:22;98337.38;;;21.09;55.21
56414;BME280;42318;48.452;19.526;2023-05-29T09:45:53;98352.66;;;21.10;55.28
56414;BME280;42318;48.452;19.526;2023-05-29T09:53:25;98346.13;;;21.11;55.24
56414;BME280;42318;48.452;19.526;2023-05-29T10:00:56;98338.50;;;21.13;55.04
56414;BME280;42318;48.452;19.526;2023-05-29T10:08:28;98337.97;;;21.16;55.14
56414;BME280;42318;48.452;19.526;2023-05-29T10:16:03;98327.06;;;21.16;55.09
56414;BME280;42318;48.452;19.526;2023-05-29T10:23:34;98325.16;;;21.17;55.13
56414;BME280;42318;48.452;19.526;2023-05-29T10:31:16;98324.06;;;21.18;55.21
56414;BME280;42318;48.452;19.526;2023-05-29T10:38:48;98333.06;;;21.18;55.14
56414;BME280;42318;48.452;19.526;2023-05-29T10:46:19;98322.97;;;21.19;54.96
56414;BME280;42318;48.452;19.526;2023-05-29T10:53:50;98316.44;;;21.20;55.08
56414;BME280;42318;48.452;19.526;2023-05-29T11:01:23;98309.09;;;21.20;55.20
56414;BME280;42318;48.452;19.526;2023-05-29T11:08:58;98306.09;;;21.22;54.95
56414;BME280;42318;48.452;19.526;2023-05-29T11:24:03;98298.25;;;21.25;55.04
56414;BME280;42318;48.452;19.526;2023-05-29T11:31:37;98292.00;;;21.25;55.28
56414;BME280;42318;48.452;19.526;2023-05-29T11:39:10;98290.09;;;21.25;54.87
56414;BME280;42318;48.452;19.526;2023-05-29T11:46:41;98288.19;;;21.26;54.87
56414;BME280;42318;48.452;19.526;2023-05-29T11:54:12;98281.66;;;21.27;55.23
56414;BME280;42318;48.452;19.526;2023-05-29T12:01:43;98284.38;;;21.27;55.01
56414;BME280;42318;48.452;19.526;2023-05-29T12:09:29;98268.84;;;21.27;55.52
56414;BME280;42318;48.452;19.526;2023-05-29T12:17:01;98257.66;;;21.29;55.22
56414;BME280;42318;48.452;19.526;2023-05-29T12:24:34;98257.66;;;21.29;55.30
56414;BME280;42318;48.452;19.526;2023-05-29T12:32:09;98252.75;;;21.31;55.31
56414;BME280;42318;48.452;19.526;2023-05-29T12:39:40;98239.97;;;21.31;55.04
56414;BME280;42318;48.452;19.526;2023-05-29T12:47:14;98226.34;;;21.31;55.33
56414;BME280;42318;48.452;19.526;2023-05-29T12:54:44;98220.88;;;21.31;55.32
56414;BME280;42318;48.452;19.526;2023-05-29T13:02:15;98217.06;;;21.33;55.07
56414;BME280;42318;48.452;19.526;2023-05-29T13:09:47;98205.34;;;21.32;55.32
56414;BME280;42318;48.452;19.526;2023-05-29T13:17:17;98205.06;;;21.34;55.03
56414;BME280;42318;48.452;19.526;2023-05-29T13:24:48;98204.00;;;21.35;55.28
56414;BME280;42318;48.452;19.526;2023-05-29T13:32:19;98196.34;;;21.37;55.29
56414;BME280;42318;48.452;19.526;2023-05-29T13:39:50;98201.53;;;21.38;55.38
56414;BME280;42318;48.452;19.526;2023-05-29T13:47:21;98198.81;;;21.38;55.42
56414;BME280;42318;48.452;19.526;2023-05-29T13:54:52;98188.19;;;21.37;55.12
56414;BME280;42318;48.452;19.526;2023-05-29T14:02:23;98189.28;;;21.41;55.22
56414;BME280;42318;48.452;19.526;2023-05-29T14:09:55;98195.53;;;21.41;55.06
56414;BME280;42318;48.452;19.526;2023-05-29T14:17:26;98193.09;;;21.40;55.31
56414;BME280;42318;48.452;19.526;2023-05-29T14:24:57;98202.09;;;21.40;55.37
56414;BME280;42318;48.452;19.526;2023-05-29T14:32:29;98207.53;;;21.40;55.36
56414;BME280;42318;48.452;19.526;2023-05-29T14:40:00;98217.88;;;21.38;55.39
56414;BME280;42318;48.452;19.526;2023-05-29T14:47:31;98225.53;;;21.41;55.76
56414;BME280;42318;48.452;19.526;2023-05-29T14:55:04;98212.16;;;21.40;55.29
56414;BME280;42318;48.452;19.526;2023-05-29T15:02:36;98226.34;;;21.42;55.32
56414;BME280;42318;48.452;19.526;2023-05-29T15:10:10;98216.53;;;21.41;55.45
56414;BME280;42318;48.452;19.526;2023-05-29T15:17:41;98235.59;;;21.41;55.36
56414;BME280;42318;48.452;19.526;2023-05-29T15:25:11;98238.88;;;21.38;55.52
56414;BME280;42318;48.452;19.526;2023-05-29T15:32:43;98240.25;;;21.40;55.67
56414;BME280;42318;48.452;19.526;2023-05-29T15:40:14;98238.59;;;21.39;55.57
56414;BME280;42318;48.452;19.526;2023-05-29T15:47:45;98232.88;;;21.41;55.36
56414;BME280;42318;48.452;19.526;2023-05-29T15:55:16;98231.78;;;21.42;55.56
56414;BME280;42318;48.452;19.526;2023-05-29T16:02:47;98209.97;;;21.42;55.65
56414;BME280;42318;48.452;19.526;2023-05-29T16:10:20;98215.72;;;21.40;55.73
56414;BME280;42318;48.452;19.526;2023-05-29T16:17:51;98213.81;;;21.41;55.77
56414;BME280;42318;48.452;19.526;2023-05-29T16:25:22;98220.34;;;21.40;55.77
56414;BME280;42318;48.452;19.526;2023-05-29T16:32:53;98222.78;;;21.41;55.58
56414;BME280;42318;48.452;19.526;2023-05-29T16:40:24;98218.44;;;21.40;55.51
56414;BME280;42318;48.452;19.526;2023-05-29T16:47:55;98222.25;;;21.39;55.80
56414;BME280;42318;48.452;19.526;2023-05-29T16:55:26;98225.53;;;21.41;55.69
56414;BME280;42318;48.452;19.526;2023-05-29T17:02:57;98221.97;;;21.41;55.77
56414;BME280;42318;48.452;19.526;2023-05-29T17:10:32;98215.72;;;21.40;55.47
56414;BME280;42318;48.452;19.526;2023-05-29T17:18:04;98214.88;;;21.40;55.69
56414;BME280;42318;48.452;19.526;2023-05-29T17:25:34;98223.06;;;21.40;55.56
56414;BME280;42318;48.452;19.526;2023-05-29T17:33:05;98218.44;;;21.40;55.57
56414;BME280;42318;48.452;19.526;2023-05-29T17:40:36;98223.06;;;21.40;55.62
56414;BME280;42318;48.452;19.526;2023-05-29T17:48:07;98228.53;;;21.40;55.60
56414;BME280;42318;48.452;19.526;2023-05-29T17:55:38;98227.69;;;21.39;55.56
56414;BME280;42318;48.452;19.526;2023-05-29T18:03:09;98231.25;;;21.40;55.38
56414;BME280;42318;48.452;19.526;2023-05-29T18:10:40;98237.78;;;21.39;55.38
56414;BME280;42318;48.452;19.526;2023-05-29T18:18:11;98249.78;;;21.38;55.69
56414;BME280;42318;48.452;19.526;2023-05-29T18:25:42;98263.13;;;21.39;55.70
56414;BME280;42318;48.452;19.526;2023-05-29T18:33:13;98276.75;;;21.34;55.58
56414;BME280;42318;48.452;19.526;2023-05-29T18:40:45;98292.00;;;21.35;55.48
56414;BME280;42318;48.452;19.526;2023-05-29T18:48:17;98319.81;;;21.37;55.22
56414;BME280;42318;48.452;19.526;2023-05-29T18:55:48;98330.44;;;21.39;55.71
56414;BME280;42318;48.452;19.526;2023-05-29T19:03:19;98322.53;;;21.37;55.55
56414;BME280;42318;48.452;19.526;2023-05-29T19:10:50;98331.53;;;21.38;55.61
56414;BME280;42318;48.452;19.526;2023-05-29T19:18:21;98344.34;;;21.37;55.45
56414;BME280;42318;48.452;19.526;2023-05-29T19:25:52;98336.44;;;21.36;55.61
56414;BME280;42318;48.452;19.526;2023-05-29T19:33:23;98348.16;;;21.36;55.79
56414;BME280;42318;48.452;19.526;2023-05-29T19:40:54;98348.97;;;21.37;55.69
56414;BME280;42318;48.452;19.526;2023-05-29T19:48:25;98351.97;;;21.35;55.40
56414;BME280;42318;48.452;19.526;2023-05-29T19:55:56;98347.88;;;21.33;55.53
56414;BME280;42318;48.452;19.526;2023-05-29T20:03:29;98355.78;;;21.34;55.80
56414;BME280;42318;48.452;19.526;2023-05-29T20:11:02;98361.22;;;21.34;55.67
56414;BME280;42318;48.452;19.526;2023-05-29T20:18:33;98373.78;;;21.35;55.62
56414;BME280;42318;48.452;19.526;2023-05-29T20:26:04;98372.94;;;21.35;55.58
56414;BME280;42318;48.452;19.526;2023-05-29T20:33:35;98368.84;;;21.32;55.61
56414;BME280;42318;48.452;19.526;2023-05-29T20:41:07;98365.06;;;21.33;56.07
56414;BME280;42318;48.452;19.526;2023-05-29T20:48:38;98367.78;;;21.33;55.74
56414;BME280;42318;48.452;19.526;2023-05-29T20:56:12;98358.78;;;21.33;55.61
56414;BME280;42318;48.452;19.526;2023-05-29T21:03:45;98358.78;;;21.33;55.78
56414;BME280;42318;48.452;19.526;2023-05-29T21:11:17;98360.94;;;21.30;55.76
56414;BME280;42318;48.452;19.526;2023-05-29T21:18:49;98366.13;;;21.32;55.79
56414;BME280;42318;48.452;19.526;2023-05-29T21:26:19;98362.84;;;21.30;55.66
56414;BME280;42318;48.452;19.526;2023-05-29T21:33:50;98363.41;;;21.32;55.87
56414;BME280;42318;48.452;19.526;2023-05-29T21:41:21;98353.59;;;21.31;55.77
56414;BME280;42318;48.452;19.526;2023-05-29T21:48:53;98353.59;;;21.31;55.55
56414;BME280;42318;48.452;19.526;2023-05-29T21:56:24;98342.16;;;21.29;55.53
56414;BME280;42318;48.452;19.526;2023-05-29T22:03:57;98350.31;;;21.29;55.44
56414;BME280;42318;48.452;19.526;2023-05-29T22:11:27;98341.06;;;21.30;55.70
56414;BME280;42318;48.452;19.526;2023-05-29T22:18:59;98327.97;;;21.27;55.25
56414;BME280;42318;48.452;19.526;2023-05-29T22:26:30;98337.50;;;21.29;55.49
56414;BME280;42318;48.452;19.526;2023-05-29T22:34:01;98332.88;;;21.30;55.39
56414;BME280;42318;48.452;19.526;2023-05-29T22:41:32;98332.88;;;21.30;55.38
56414;BME280;42318;48.452;19.526;2023-05-29T22:49:04;98329.59;;;21.28;55.62
56414;BME280;42318;48.452;19.526;2023-05-29T22:56:35;98315.16;;;21.27;55.23
56414;BME280;42318;48.452;19.526;2023-05-29T23:04:07;98313.53;;;21.26;55.74
56414;BME280;42318;48.452;19.526;2023-05-29T23:11:38;98311.88;;;21.25;55.60
56414;BME280;42318;48.452;19.526;2023-05-29T23:19:09;98306.69;;;21.24;55.49
56414;BME280;42318;48.452;19.526;2023-05-29T23:26:40;98299.31;;;21.24;55.34
56414;BME280;42318;48.452;19.526;2023-05-29T23:34:11;98307.50;;;21.24;55.47
56414;BME280;42318;48.452;19.526;2023-05-29T23:41:43;98309.16;;;21.25;55.60
56414;BME280;42318;48.452;19.526;2023-05-29T23:49:14;98306.09;;;21.22;55.33
56414;BME280;42318;48.452;19.526;2023-05-29T23:56:44;98315.09;;;21.22;55.21
